createdAt,value
2019-06-26T00:01:09.460Z,14.37
2019-06-26T00:05:17.924Z,12.60
2019-06-26T00:09:25.920Z,13.47
2019-06-26T00:13:33.400Z,13.37
2019-06-26T00:17:41.291Z,14.07
2019-06-26T00:21:48.784Z,13.83
2019-06-26T00:25:56.323Z,14.53
2019-06-26T00:30:05.226Z,14.27
2019-06-26T00:34:12.906Z,15.67
2019-06-26T00:38:21.286Z,15.03
2019-06-26T00:42:29.198Z,15.63
2019-06-26T00:46:36.632Z,16.23
2019-06-26T00:50:44.981Z,16.60
2019-06-26T00:54:52.485Z,17.70
2019-06-26T00:59:00.916Z,16.83
2019-06-26T01:03:08.308Z,17.07
2019-06-26T01:07:16.424Z,16.70
2019-06-26T01:11:24.213Z,16.33
2019-06-26T01:15:31.882Z,16.97
2019-06-26T01:19:39.788Z,15.20
2019-06-26T01:23:48.125Z,15.87
2019-06-26T01:27:55.530Z,16.13
2019-06-26T01:32:03.436Z,15.87
2019-06-26T01:36:10.932Z,15.97
2019-06-26T01:40:20.292Z,15.37
2019-06-26T01:44:27.681Z,15.67
2019-06-26T01:48:35.687Z,15.17
2019-06-26T01:52:43.196Z,16.70
2019-06-26T01:56:51.106Z,15.10
2019-06-26T02:00:58.989Z,14.67
2019-06-26T02:05:06.989Z,14.93
2019-06-26T02:09:14.689Z,14.10
2019-06-26T02:13:22.178Z,14.83
2019-06-26T02:17:31.855Z,14.90
2019-06-26T02:21:39.845Z,14.77
2019-06-26T02:25:47.351Z,14.07
2019-06-26T02:29:55.734Z,14.50
2019-06-26T02:34:03.235Z,15.00
2019-06-26T02:38:10.941Z,14.27
2019-06-26T02:42:18.930Z,14.30
2019-06-26T02:46:26.419Z,12.90
2019-06-26T02:50:34.575Z,13.40
2019-06-26T02:54:43.572Z,13.50
2019-06-26T02:58:52.559Z,12.80
2019-06-26T03:03:00.563Z,13.17
2019-06-26T03:07:08.404Z,12.60
2019-06-26T03:11:16.317Z,13.13
2019-06-26T03:15:23.915Z,12.43
2019-06-26T03:19:32.305Z,12.27
2019-06-26T03:23:39.814Z,12.33
2019-06-26T03:27:47.312Z,13.33
2019-06-26T03:31:55.301Z,13.30
2019-06-26T03:36:02.706Z,13.47
2019-06-26T03:40:10.404Z,13.07
2019-06-26T03:44:18.241Z,13.63
2019-06-26T03:48:25.794Z,13.27
2019-06-26T03:52:33.863Z,13.37
2019-06-26T03:56:42.026Z,14.43
2019-06-26T04:00:50.845Z,13.70
2019-06-26T04:04:58.837Z,13.77
2019-06-26T04:09:07.410Z,13.70
2019-06-26T04:13:15.434Z,12.80
2019-06-26T04:17:23.423Z,14.33
2019-06-26T04:21:31.021Z,13.37
2019-06-26T04:25:39.009Z,14.28
2019-06-26T04:29:47.494Z,12.97
2019-06-26T04:33:55.022Z,11.80
2019-06-26T04:38:04.103Z,14.20
2019-06-26T04:42:12.789Z,11.83
2019-06-26T04:46:21.590Z,11.95
2019-06-26T04:50:29.576Z,11.90
2019-06-26T04:54:37.446Z,11.90
2019-06-26T04:58:47.174Z,11.38
2019-06-26T05:02:56.015Z,11.38
2019-06-26T05:07:04.317Z,12.60
2019-06-26T05:11:12.993Z,12.18
2019-06-26T05:15:21.178Z,12.58
2019-06-26T05:19:29.089Z,12.25
2019-06-26T05:23:37.316Z,12.00
2019-06-26T05:27:45.209Z,11.60
2019-06-26T05:31:54.249Z,11.80
2019-06-26T05:36:02.664Z,12.07
2019-06-26T05:40:11.183Z,11.33
2019-06-26T05:44:19.529Z,10.75
2019-06-26T05:48:27.223Z,11.53
2019-06-26T05:52:35.853Z,11.00
2019-06-26T05:56:45.453Z,11.50
2019-06-26T06:00:53.225Z,10.55
2019-06-26T06:05:01.598Z,9.78
2019-06-26T06:09:09.751Z,9.50
2019-06-26T06:13:17.667Z,9.70
2019-06-26T06:17:25.819Z,9.00
2019-06-26T06:21:33.823Z,9.85
2019-06-26T06:31:19.574Z,8.00
2019-06-26T06:35:27.687Z,8.48
2019-06-26T06:39:35.760Z,8.73
2019-06-26T06:43:43.677Z,7.53
2019-06-26T06:47:51.958Z,9.78
2019-06-26T06:51:59.642Z,8.58
2019-06-26T06:56:07.864Z,7.90
2019-06-26T07:00:16.880Z,7.45
2019-06-26T07:04:24.942Z,8.43
2019-06-26T07:08:33.126Z,7.90
2019-06-26T07:12:42.217Z,7.20
2019-06-26T07:16:50.099Z,7.25
2019-06-26T07:20:58.230Z,7.28
2019-06-26T07:25:06.537Z,7.12
2019-06-26T07:29:14.220Z,6.85
2019-06-26T07:33:22.572Z,6.37
2019-06-26T07:37:30.766Z,6.28
2019-06-26T07:41:38.884Z,5.30
2019-06-26T07:45:47.938Z,4.90
2019-06-26T07:49:56.741Z,6.35
2019-06-26T07:54:04.832Z,6.30
2019-06-26T07:58:12.864Z,5.92
2019-06-26T08:02:20.693Z,5.12
2019-06-26T08:06:28.487Z,6.00
2019-06-26T08:10:36.281Z,5.67
2019-06-26T08:14:44.202Z,9.03
2019-06-26T08:18:52.295Z,5.42
2019-06-26T08:23:00.165Z,5.72
2019-06-26T08:27:08.549Z,6.30
2019-06-26T08:31:16.770Z,5.70
2019-06-26T08:35:24.520Z,6.97
2019-06-26T08:39:32.491Z,5.95
2019-06-26T08:43:40.631Z,6.28
2019-06-26T08:47:48.523Z,5.83
2019-06-26T08:51:56.960Z,5.80
2019-06-26T08:56:05.088Z,5.40
2019-06-26T09:00:15.558Z,6.12
2019-06-26T09:04:23.597Z,6.12
2019-06-26T09:08:31.633Z,5.62
2019-06-26T09:12:39.602Z,6.17
2019-06-26T09:16:47.409Z,5.87
2019-06-26T09:20:55.127Z,6.03
2019-06-26T09:25:16.847Z,5.05
2019-06-26T09:29:12.487Z,5.75
2019-06-26T09:33:20.176Z,6.25
2019-06-26T09:37:29.123Z,6.67
2019-06-26T09:41:36.890Z,5.95
2019-06-26T09:45:44.842Z,6.28
2019-06-26T09:49:53.863Z,6.50
2019-06-26T09:54:01.884Z,6.30
2019-06-26T09:58:13.195Z,5.58
2019-06-26T10:02:19.871Z,6.08
2019-06-26T10:06:27.509Z,6.15
2019-06-26T10:10:35.774Z,6.15
2019-06-26T10:14:47.690Z,6.35
2019-06-26T10:19:08.982Z,6.55
2019-06-26T10:23:04.578Z,6.08
2019-06-26T10:27:12.426Z,5.92
2019-06-26T10:31:20.393Z,6.40
2019-06-26T10:35:28.588Z,5.80
2019-06-26T10:39:36.269Z,6.03
2019-06-26T10:43:44.232Z,6.58
2019-06-26T10:47:52.106Z,5.90
2019-06-26T10:52:00.411Z,6.17
2019-06-26T10:56:08.541Z,6.15
2019-06-26T11:00:16.892Z,6.00
2019-06-26T11:04:24.780Z,6.12
2019-06-26T11:08:33.003Z,5.67
2019-06-26T11:12:41.007Z,6.12
2019-06-26T11:16:48.939Z,5.20
2019-06-26T11:20:57.168Z,6.28
2019-06-26T11:25:05.206Z,5.45
2019-06-26T11:29:13.268Z,6.33
2019-06-26T11:33:21.109Z,6.25
2019-06-26T11:37:28.926Z,5.80
2019-06-26T11:41:37.632Z,5.58
2019-06-26T11:45:45.461Z,5.90
2019-06-26T11:49:59.829Z,8.80
2019-06-26T11:54:02.999Z,5.97
2019-06-26T11:58:10.926Z,5.20
2019-06-26T12:02:19.030Z,4.80
2019-06-26T12:06:26.782Z,5.35
2019-06-26T12:10:34.981Z,6.15
2019-06-26T12:14:42.879Z,5.15
2019-06-26T12:18:50.606Z,4.78
2019-06-26T12:22:58.576Z,5.00
2019-06-26T12:27:06.575Z,4.47
2019-06-26T12:31:14.719Z,4.78
2019-06-26T12:35:22.786Z,5.50
2019-06-26T12:39:30.790Z,5.35
2019-06-26T12:43:38.682Z,6.35
2019-06-26T12:47:46.497Z,5.00
2019-06-26T12:51:54.409Z,5.47
2019-06-26T12:56:03.343Z,5.58
2019-06-26T13:00:11.877Z,5.37
2019-06-26T13:04:19.796Z,5.60
2019-06-26T13:08:28.006Z,5.17
2019-06-26T13:12:37.751Z,5.50
2019-06-26T13:16:45.573Z,5.42
2019-06-26T13:20:53.992Z,5.30
2019-06-26T13:25:02.019Z,5.45
2019-06-26T13:29:10.642Z,5.72
2019-06-26T13:33:18.548Z,5.50
2019-06-26T13:37:26.481Z,5.47
2019-06-26T13:41:34.578Z,5.92
2019-06-26T13:45:42.521Z,5.37
2019-06-26T13:49:50.367Z,5.47
2019-06-26T13:53:58.704Z,6.12
2019-06-26T13:58:06.444Z,4.97
2019-06-26T14:02:14.832Z,5.20
2019-06-26T14:06:24.031Z,4.55
2019-06-26T14:10:32.091Z,5.22
2019-06-26T14:14:56.131Z,5.30
2019-06-26T14:18:49.984Z,5.20
2019-06-26T14:22:57.915Z,5.47
2019-06-26T14:27:05.810Z,5.55
2019-06-26T14:31:13.454Z,5.42
2019-06-26T14:35:21.817Z,5.40
2019-06-26T14:39:30.083Z,5.62
2019-06-26T14:43:38.052Z,6.28
2019-06-26T14:47:46.210Z,6.10
2019-06-26T14:51:54.416Z,6.20
2019-06-26T14:56:02.419Z,6.37
2019-06-26T15:00:11.204Z,6.58
2019-06-26T15:04:19.077Z,5.97
2019-06-26T15:08:27.085Z,6.20
2019-06-26T15:12:35.130Z,6.85
2019-06-26T15:16:43.132Z,7.05
2019-06-26T15:20:52.521Z,6.62
2019-06-26T15:25:02.184Z,7.00
2019-06-26T15:29:09.395Z,7.10
2019-06-26T15:33:17.341Z,6.70
2019-06-26T15:37:25.631Z,6.75
2019-06-26T15:41:34.090Z,6.65
2019-06-26T15:45:42.605Z,6.25
2019-06-26T15:49:50.734Z,6.20
2019-06-26T15:54:00.095Z,5.80
2019-06-26T15:58:08.226Z,6.22
2019-06-26T16:02:16.472Z,6.65
2019-06-26T16:06:27.071Z,6.50
2019-06-26T16:10:35.278Z,6.60
2019-06-26T16:14:43.180Z,6.25
2019-06-26T16:18:56.569Z,6.42
2019-06-26T16:23:04.656Z,6.60
2019-06-26T16:27:12.658Z,6.25
2019-06-26T16:31:20.878Z,7.05
2019-06-26T16:35:29.046Z,5.65
2019-06-26T16:39:37.026Z,6.40
2019-06-26T16:43:44.859Z,6.90
2019-06-26T16:47:52.643Z,5.70
2019-06-26T16:52:00.978Z,5.28
2019-06-26T16:56:08.849Z,5.25
2019-06-26T17:00:18.934Z,5.20
2019-06-26T17:04:26.893Z,5.62
2019-06-26T17:08:34.840Z,7.45
2019-06-26T17:12:43.303Z,6.08
2019-06-26T17:16:51.230Z,5.35
2019-06-26T17:20:59.571Z,6.17
2019-06-26T17:25:07.594Z,5.92
2019-06-26T17:29:15.554Z,6.70
2019-06-26T17:33:23.889Z,6.10
2019-06-26T17:37:32.025Z,6.42
2019-06-26T17:41:39.941Z,5.97
2019-06-26T17:45:48.208Z,7.33
2019-06-26T17:49:56.736Z,11.12
2019-06-26T17:54:05.443Z,10.95
2019-06-26T17:58:13.816Z,10.75
2019-06-26T18:02:23.121Z,10.75
2019-06-26T18:06:31.241Z,8.95
2019-06-26T18:10:39.425Z,10.23
2019-06-26T18:14:47.883Z,12.90
2019-06-26T18:18:55.967Z,11.40
2019-06-26T18:23:07.506Z,10.80
2019-06-26T18:27:14.184Z,11.30
2019-06-26T18:31:22.416Z,11.00
2019-06-26T18:35:30.418Z,10.80
2019-06-26T18:39:38.639Z,12.45
2019-06-26T18:43:46.379Z,13.25
2019-06-26T18:47:55.051Z,14.13
2019-06-26T18:52:03.095Z,13.25
2019-06-26T18:56:11.492Z,12.35
2019-06-26T19:00:19.738Z,9.00
2019-06-26T19:04:27.587Z,7.70
2019-06-26T19:08:35.827Z,7.80
2019-06-26T19:12:43.953Z,7.62
2019-06-26T19:16:51.879Z,7.80
2019-06-26T19:20:59.985Z,7.08
2019-06-26T19:25:08.525Z,8.78
2019-06-26T19:29:16.748Z,8.20
2019-06-26T19:33:24.727Z,6.92
2019-06-26T19:37:33.083Z,6.97
2019-06-26T19:41:41.109Z,8.25
2019-06-26T19:45:48.846Z,6.70
2019-06-26T19:49:56.596Z,7.30
2019-06-26T19:54:05.026Z,6.60
2019-06-26T19:58:13.306Z,7.17
2019-06-26T20:02:21.384Z,6.53
2019-06-26T20:07:04.055Z,7.50
2019-06-26T20:11:53.346Z,7.28
2019-06-26T20:17:02.836Z,8.25
2019-06-26T20:21:44.955Z,7.70
2019-06-26T20:26:19.485Z,8.47
2019-06-26T20:31:19.873Z,7.17
2019-06-26T20:36:23.251Z,6.43
2019-06-26T20:46:08.900Z,7.10
2019-06-26T20:51:08.596Z,6.78
2019-06-26T20:55:50.601Z,7.85
2019-06-26T21:00:30.415Z,8.67
2019-06-26T21:04:55.899Z,8.63
2019-06-26T21:14:32.903Z,6.20
2019-06-26T21:19:26.408Z,6.20
2019-06-26T21:23:54.810Z,7.33
2019-06-26T21:28:52.989Z,8.60
2019-06-26T21:33:48.383Z,6.85
2019-06-26T21:38:37.822Z,7.63
2019-06-26T21:43:20.248Z,7.05
2019-06-26T21:48:15.958Z,6.00
2019-06-26T21:52:33.723Z,6.17
2019-06-26T21:56:41.936Z,6.67
2019-06-26T22:01:07.643Z,6.70
2019-06-26T22:05:33.615Z,6.40
2019-06-26T22:10:01.338Z,5.45
2019-06-26T22:14:11.113Z,5.58
2019-06-26T22:18:19.115Z,6.28
2019-06-26T22:22:28.553Z,5.80
2019-06-26T22:26:36.620Z,6.17
2019-06-26T22:30:44.642Z,6.40
2019-06-26T22:34:52.619Z,6.93
2019-06-26T22:39:00.838Z,6.00
2019-06-26T22:43:10.281Z,7.07
2019-06-26T22:47:18.707Z,5.93
2019-06-26T22:51:27.467Z,6.50
2019-06-26T22:55:35.461Z,5.83
2019-06-26T22:59:43.699Z,6.27
2019-06-26T23:03:51.695Z,5.55
2019-06-26T23:08:00.021Z,6.50
2019-06-26T23:12:07.861Z,5.80
2019-06-26T23:16:15.728Z,5.35
2019-06-26T23:20:23.762Z,6.63
2019-06-26T23:24:31.678Z,7.33
2019-06-26T23:28:39.538Z,7.27
2019-06-26T23:32:47.792Z,8.13
2019-06-26T23:36:55.626Z,7.22
2019-06-26T23:41:03.746Z,7.47
2019-06-26T23:45:11.967Z,7.47
2019-06-26T23:49:19.568Z,7.93
2019-06-26T23:53:27.675Z,7.13
2019-06-26T23:57:35.462Z,7.20
